Barksdale Air Force Base Bossier City US
ICAO: KBAD
IATA: BAD
Category: Large
Scheduled Services: No

Elevation: 166 ft
TransAlt. 18000 ft.

Airport Communications:
SHREVEPORT APP/DEP:119.9
ATIS:37.58
GND:121.8
PMSV METRO:37.362
COMD POST:31.1
PTD:37.22
TWR:128.25

KBAD Zoom In..

If you have problems with the map follow the link
https://www.worldairports.se/pages/airport.php?
ICAO=KBAD

Runways:

(A) RW 15 length 11758 ft width 299 ft
ILS 108.90 / hdg 146

(B) RW 33 length 11758 ft width 299 ft
ILS 109.90 / hdg 326

Location; KBAD
Day. 23 / Time. 18.56 Zulu
* Altimeter: 30.18
* Temperature: 17° c. 62.6°f.
* Wind from: 030° Speed 07 kn.
Dewpoint: 09° c.
Visibility: 10 Statute Miles.
Clouds: Few 14000 ft.
Clouds: Scattered 16000 ft.
Clouds: Scattered 21000 ft.

KBAD 231856Z AUTO 03007KT 10SM FEW140 SCT160 SCT210 17/09 A3018 RMK AO2 SLP223 T01710093


Wind From 030°
Speed 07 kn.

 
 
jpsmedia.com for Web Design worldairports.se 2018   terms of use